Time;durP1;ratioP1;P1;durP2;ratioP2;P2;SDS_P1;SDS_P2;PMS_P1;PMS_P2;Temp;Humidity;BMP_temperature;BMP_pressure;BME280_temperature;BME280_humidity;BME280_pressure;Samples;Min_cycle;Max_cycle;Signal;HPM_P1;HPM_P2
2022/07/20 00:00:52;;;;;;;6.20;2.70;;;;;;;;;;4993797;28;20406;-61
2022/07/20 00:03:18;;;;;;;4.95;2.80;;;;;;;;;;4993529;28;20472;-60
2022/07/20 00:05:45;;;;;;;5.30;2.70;;;;;;;;;;4993917;28;20449;-59
2022/07/20 00:08:11;;;;;;;5.10;2.80;;;;;;;;;;4993617;28;20406;-58
2022/07/20 00:13:23;;;;;;;4.80;2.60;;;;;;;;;;4993232;28;20397;-58
2022/07/20 00:15:50;;;;;;;5.10;2.90;;;;;;;;;;4993337;28;20422;-58
2022/07/20 00:18:16;;;;;;;7.35;2.90;;;;;;;;;;4993441;28;20828;-58
2022/07/20 00:20:42;;;;;;;5.15;2.58;;;;;;;;;;4993423;28;20476;-59
2022/07/20 00:23:08;;;;;;;4.75;2.90;;;;;;;;;;4993419;28;20809;-59
2022/07/20 00:25:34;;;;;;;3.75;2.75;;;;;;;;;;4993308;28;20424;-59
2022/07/20 00:28:00;;;;;;;5.55;2.90;;;;;;;;;;4993403;28;20434;-59
2022/07/20 00:30:27;;;;;;;5.63;2.80;;;;;;;;;;4993047;28;20410;-59
2022/07/20 00:32:53;;;;;;;5.10;2.80;;;;;;;;;;4993278;28;20469;-59
2022/07/20 00:35:19;;;;;;;7.00;2.95;;;;;;;;;;4992846;28;20513;-59
2022/07/20 00:37:45;;;;;;;5.82;2.83;;;;;;;;;;4992226;28;20772;-59
2022/07/20 00:40:13;;;;;;;3.85;2.70;;;;;;;;;;4992902;28;20477;-59
2022/07/20 00:42:39;;;;;;;4.07;2.60;;;;;;;;;;4993009;28;20421;-59
2022/07/20 00:45:06;;;;;;;8.25;3.20;;;;;;;;;;4993049;28;20430;-59
2022/07/20 00:47:34;;;;;;;4.45;2.63;;;;;;;;;;4992930;28;20485;-59
2022/07/20 00:50:00;;;;;;;6.50;2.80;;;;;;;;;;4993050;28;20429;-59
2022/07/20 00:52:26;;;;;;;5.03;2.70;;;;;;;;;;4992837;28;20406;-59
2022/07/20 00:54:53;;;;;;;6.28;2.65;;;;;;;;;;4992712;28;20964;-59
2022/07/20 00:57:20;;;;;;;6.80;2.70;;;;;;;;;;4992435;28;20418;-58
2022/07/20 00:59:46;;;;;;;5.70;3.00;;;;;;;;;;4992861;28;20411;-59
2022/07/20 01:02:12;;;;;;;7.30;2.88;;;;;;;;;;4992622;28;20406;-59
2022/07/20 01:04:39;;;;;;;5.00;2.70;;;;;;;;;;4992686;28;20461;-59
2022/07/20 01:07:06;;;;;;;5.40;2.90;;;;;;;;;;4992725;28;20418;-59
2022/07/20 01:09:32;;;;;;;4.30;2.80;;;;;;;;;;4992619;28;20542;-59
2022/07/20 01:11:58;;;;;;;6.30;2.80;;;;;;;;;;4992527;28;20414;-59
2022/07/20 01:14:24;;;;;;;7.55;2.92;;;;;;;;;;4992126;28;20422;-59
2022/07/20 01:16:50;;;;;;;7.13;3.10;;;;;;;;;;4992317;28;20785;-59
2022/07/20 01:19:16;;;;;;;7.35;2.85;;;;;;;;;;4992435;28;20429;-59
2022/07/20 01:21:43;;;;;;;5.32;2.78;;;;;;;;;;4992424;28;20409;-59
2022/07/20 01:24:10;;;;;;;7.23;2.90;;;;;;;;;;4992298;28;20443;-59
2022/07/20 01:26:37;;;;;;;7.07;3.17;;;;;;;;;;4992132;28;20571;-59
2022/07/20 01:29:03;;;;;;;5.93;2.80;;;;;;;;;;4992134;28;20915;-59
2022/07/20 01:31:29;;;;;;;6.55;3.00;;;;;;;;;;4992104;28;20814;-59
2022/07/20 01:33:55;;;;;;;6.78;3.92;;;;;;;;;;4991821;28;20917;-59
2022/07/20 01:36:21;;;;;;;5.33;3.20;;;;;;;;;;4992082;28;20499;-58
2022/07/20 01:38:49;;;;;;;7.68;2.88;;;;;;;;;;4992091;28;20414;-58
2022/07/20 01:41:15;;;;;;;5.53;2.83;;;;;;;;;;4992070;28;20415;-58
2022/07/20 01:43:41;;;;;;;4.97;3.03;;;;;;;;;;4992085;28;20413;-59
2022/07/20 01:46:07;;;;;;;6.30;3.10;;;;;;;;;;4991937;28;20475;-58
2022/07/20 01:48:33;;;;;;;4.15;2.80;;;;;;;;;;4991663;28;20950;-58
2022/07/20 01:50:59;;;;;;;7.78;3.10;;;;;;;;;;4992042;28;20565;-58
2022/07/20 01:53:25;;;;;;;5.60;3.10;;;;;;;;;;4991818;28;20500;-58
2022/07/20 01:55:52;;;;;;;6.13;3.08;;;;;;;;;;4991462;28;20418;-58
2022/07/20 01:58:18;;;;;;;5.85;2.97;;;;;;;;;;4991795;28;20481;-58
2022/07/20 02:00:44;;;;;;;3.70;2.95;;;;;;;;;;4991783;28;20852;-59
2022/07/20 02:03:10;;;;;;;6.47;3.10;;;;;;;;;;4991740;28;20445;-58
2022/07/20 02:05:36;;;;;;;4.67;2.77;;;;;;;;;;4991746;28;20511;-59
2022/07/20 02:08:03;;;;;;;3.90;2.80;;;;;;;;;;4991778;28;20889;-58
2022/07/20 02:10:29;;;;;;;6.43;2.92;;;;;;;;;;4991606;28;20861;-58
2022/07/20 02:12:56;;;;;;;6.47;3.17;;;;;;;;;;4991659;28;20413;-58
2022/07/20 02:18:07;;;;;;;6.57;2.92;;;;;;;;;;4991448;28;20706;-58
2022/07/20 02:20:34;;;;;;;4.68;2.97;;;;;;;;;;4991556;28;20465;-58
2022/07/20 02:23:00;;;;;;;4.05;2.95;;;;;;;;;;4991661;28;20465;-58
2022/07/20 02:25:26;;;;;;;5.15;2.83;;;;;;;;;;4991618;28;20410;-59
2022/07/20 02:27:51;;;;;;;4.83;2.90;;;;;;;;;;4992744;28;20259;-59
2022/07/20 02:30:19;;;;;;;5.13;2.77;;;;;;;;;;4992684;28;20290;-58
2022/07/20 02:32:45;;;;;;;3.53;2.83;;;;;;;;;;4992720;28;20567;-59
2022/07/20 02:35:11;;;;;;;4.27;2.93;;;;;;;;;;4992360;28;20712;-58
2022/07/20 02:37:37;;;;;;;3.00;2.63;;;;;;;;;;4992511;28;20210;-59
2022/07/20 02:40:03;;;;;;;4.23;2.87;;;;;;;;;;4992678;28;20210;-58
2022/07/20 02:42:29;;;;;;;6.23;3.00;;;;;;;;;;4992581;28;20305;-59
2022/07/20 02:44:55;;;;;;;3.43;2.73;;;;;;;;;;4992658;28;20716;-59
2022/07/20 02:47:23;;;;;;;6.00;3.07;;;;;;;;;;4992459;28;20246;-59
2022/07/20 02:49:48;;;;;;;8.07;3.20;;;;;;;;;;4992557;28;20205;-60
2022/07/20 02:52:14;;;;;;;4.27;2.63;;;;;;;;;;4992737;28;20206;-58
2022/07/20 02:54:40;;;;;;;3.83;2.80;;;;;;;;;;4992493;28;20226;-58
2022/07/20 02:57:06;;;;;;;5.10;2.83;;;;;;;;;;4992421;28;20566;-58
2022/07/20 02:59:32;;;;;;;7.03;2.80;;;;;;;;;;4992350;28;20205;-59
2022/07/20 03:01:58;;;;;;;3.20;2.63;;;;;;;;;;4996114;28;20615;-58
2022/07/20 03:04:26;;;;;;;6.73;2.97;;;;;;;;;;4996034;28;20198;-59
2022/07/20 03:06:52;;;;;;;5.20;3.23;;;;;;;;;;4996103;28;20215;-58
2022/07/20 03:09:18;;;;;;;4.17;3.03;;;;;;;;;;4995994;28;20194;-59
2022/07/20 03:11:43;;;;;;;4.77;3.10;;;;;;;;;;4996104;28;20696;-59
2022/07/20 03:14:09;;;;;;;5.70;3.20;;;;;;;;;;4995858;28;20329;-59
2022/07/20 03:16:36;;;;;;;6.33;3.07;;;;;;;;;;4995866;28;20802;-60
2022/07/20 03:19:01;;;;;;;5.47;2.83;;;;;;;;;;4995995;28;20201;-59
2022/07/20 03:21:29;;;;;;;4.47;2.67;;;;;;;;;;4995686;28;20202;-59
2022/07/20 03:23:55;;;;;;;4.13;2.77;;;;;;;;;;4995653;28;20245;-59
2022/07/20 03:26:22;;;;;;;5.43;3.10;;;;;;;;;;4995783;28;20735;-59
2022/07/20 03:28:48;;;;;;;7.67;3.00;;;;;;;;;;4995736;28;20621;-59
2022/07/20 03:31:14;;;;;;;5.43;2.70;;;;;;;;;;4995634;28;20233;-59
2022/07/20 03:33:40;;;;;;;4.33;3.00;;;;;;;;;;4995490;28;20226;-58
2022/07/20 03:36:06;;;;;;;5.00;2.90;;;;;;;;;;4995541;28;20234;-59
2022/07/20 03:38:33;;;;;;;7.07;3.57;;;;;;;;;;4995490;28;20201;-59
2022/07/20 03:40:59;;;;;;;5.73;3.40;;;;;;;;;;4995569;28;20213;-59
2022/07/20 03:43:26;;;;;;;3.20;2.90;;;;;;;;;;4995316;28;20634;-58
2022/07/20 03:45:52;;;;;;;6.63;2.90;;;;;;;;;;4995271;28;20285;-59
2022/07/20 03:48:18;;;;;;;7.13;3.27;;;;;;;;;;4995354;28;20199;-58
2022/07/20 03:50:44;;;;;;;6.50;3.33;;;;;;;;;;4995311;28;20253;-59
2022/07/20 03:53:10;;;;;;;4.27;3.07;;;;;;;;;;4995187;28;20210;-59
2022/07/20 03:55:37;;;;;;;6.50;3.20;;;;;;;;;;4995073;28;20225;-59
2022/07/20 03:58:03;;;;;;;8.60;3.60;;;;;;;;;;4995209;28;20553;-59
2022/07/20 04:00:30;;;;;;;6.20;3.60;;;;;;;;;;4995065;28;20245;-58
2022/07/20 04:02:56;;;;;;;4.77;3.10;;;;;;;;;;4995127;28;20206;-58
2022/07/20 04:05:22;;;;;;;4.37;2.83;;;;;;;;;;4994926;28;20610;-58
2022/07/20 04:07:48;;;;;;;5.10;3.33;;;;;;;;;;4995076;28;20202;-58
2022/07/20 04:10:14;;;;;;;3.90;3.17;;;;;;;;;;4994884;28;20202;-58
2022/07/20 04:12:42;;;;;;;5.67;3.27;;;;;;;;;;4994617;28;20261;-58
2022/07/20 04:15:08;;;;;;;4.77;3.03;;;;;;;;;;4994711;28;20233;-58
2022/07/20 04:17:34;;;;;;;3.47;3.00;;;;;;;;;;4994757;28;20230;-58
2022/07/20 04:20:00;;;;;;;8.03;3.13;;;;;;;;;;4994864;28;20225;-59
2022/07/20 04:22:26;;;;;;;6.90;3.80;;;;;;;;;;4994388;28;20252;-58
2022/07/20 04:24:52;;;;;;;5.17;3.00;;;;;;;;;;4992821;28;20198;-58
2022/07/20 04:27:18;;;;;;;3.93;3.10;;;;;;;;;;4994458;28;20194;-58
2022/07/20 04:29:46;;;;;;;6.63;3.50;;;;;;;;;;4994637;28;20198;-59
2022/07/20 04:32:12;;;;;;;6.47;3.40;;;;;;;;;;4994270;28;20222;-58
2022/07/20 04:34:38;;;;;;;6.17;3.40;;;;;;;;;;4994296;28;20237;-58
2022/07/20 04:37:04;;;;;;;7.97;3.20;;;;;;;;;;4994690;28;20227;-58
2022/07/20 04:39:30;;;;;;;4.83;3.10;;;;;;;;;;4994403;28;20222;-58
2022/07/20 04:41:56;;;;;;;7.20;3.10;;;;;;;;;;4994295;28;20225;-58
2022/07/20 04:44:22;;;;;;;4.57;3.03;;;;;;;;;;4994063;28;20261;-58
2022/07/20 04:46:49;;;;;;;7.60;3.10;;;;;;;;;;4994013;28;20261;-58
2022/07/20 04:49:15;;;;;;;4.87;3.30;;;;;;;;;;4994171;28;20210;-58
2022/07/20 04:51:42;;;;;;;5.67;3.23;;;;;;;;;;4994092;28;20289;-58
2022/07/20 04:54:08;;;;;;;6.67;3.10;;;;;;;;;;4994010;28;20206;-58
2022/07/20 04:56:34;;;;;;;9.00;3.73;;;;;;;;;;4993832;28;20202;-58
2022/07/20 04:59:00;;;;;;;4.60;3.10;;;;;;;;;;4994116;28;20523;-58
2022/07/20 05:01:26;;;;;;;6.80;3.53;;;;;;;;;;4993828;28;20233;-58
2022/07/20 05:03:53;;;;;;;4.23;3.00;;;;;;;;;;4993857;28;20666;-58
2022/07/20 05:06:20;;;;;;;7.40;3.40;;;;;;;;;;4993773;28;20284;-58
2022/07/20 05:08:46;;;;;;;5.53;3.20;;;;;;;;;;4993968;28;20210;-58
2022/07/20 05:11:12;;;;;;;5.13;3.20;;;;;;;;;;4993703;28;20724;-58
2022/07/20 05:13:38;;;;;;;7.10;3.33;;;;;;;;;;4993682;28;20281;-59
2022/07/20 05:16:04;;;;;;;7.10;3.40;;;;;;;;;;4993528;28;20249;-58
2022/07/20 05:18:30;;;;;;;7.37;3.50;;;;;;;;;;4993637;28;20206;-59
2022/07/20 05:20:58;;;;;;;5.73;3.30;;;;;;;;;;4993569;28;20198;-58
2022/07/20 05:23:24;;;;;;;4.83;3.30;;;;;;;;;;4992883;28;20217;-58
2022/07/20 05:25:50;;;;;;;5.57;3.13;;;;;;;;;;4993458;28;20287;-59
2022/07/20 05:28:18;;;;;;;5.27;3.03;;;;;;;;;;4993523;28;20198;-58
2022/07/20 05:30:44;;;;;;;4.97;3.30;;;;;;;;;;4993354;28;20660;-58
2022/07/20 05:33:10;;;;;;;7.03;3.20;;;;;;;;;;4993178;28;20218;-58
2022/07/20 05:35:36;;;;;;;4.20;3.17;;;;;;;;;;4992365;28;20736;-58
2022/07/20 05:38:03;;;;;;;4.43;3.20;;;;;;;;;;4993231;28;20206;-59
2022/07/20 05:40:29;;;;;;;6.40;2.80;;;;;;;;;;4993161;28;20209;-58
2022/07/20 05:42:55;;;;;;;8.10;2.83;;;;;;;;;;4993070;28;20213;-58
2022/07/20 05:45:21;;;;;;;8.47;3.30;;;;;;;;;;4992934;28;20203;-58
2022/07/20 05:47:47;;;;;;;8.23;2.50;;;;;;;;;;4993052;28;20565;-58
2022/07/20 05:50:13;;;;;;;9.60;3.20;;;;;;;;;;4992971;28;20232;-58
2022/07/20 05:52:39;;;;;;;7.13;2.80;;;;;;;;;;4992726;28;20203;-58
2022/07/20 05:55:07;;;;;;;6.50;2.50;;;;;;;;;;4992537;28;20652;-58
2022/07/20 05:57:33;;;;;;;7.60;3.00;;;;;;;;;;4992263;28;20209;-58
2022/07/20 05:59:59;;;;;;;3.77;2.57;;;;;;;;;;4992722;28;20203;-58
2022/07/20 06:02:25;;;;;;;4.43;2.67;;;;;;;;;;4992554;28;20686;-59
2022/07/20 06:04:51;;;;;;;7.53;3.07;;;;;;;;;;4992807;28;20193;-58
2022/07/20 06:07:17;;;;;;;3.87;2.73;;;;;;;;;;4992331;28;20546;-58
2022/07/20 06:09:43;;;;;;;4.77;2.60;;;;;;;;;;4992633;28;20214;-59
2022/07/20 06:12:10;;;;;;;5.27;2.97;;;;;;;;;;4992647;28;20208;-59
2022/07/20 06:14:36;;;;;;;4.83;3.07;;;;;;;;;;4992037;28;20229;-59
2022/07/20 06:17:03;;;;;;;4.70;2.80;;;;;;;;;;4992665;28;20208;-59
2022/07/20 06:19:29;;;;;;;2.90;2.23;;;;;;;;;;4992397;28;20216;-58
2022/07/20 06:21:55;;;;;;;5.57;2.37;;;;;;;;;;4992694;28;20220;-58
2022/07/20 06:24:21;;;;;;;4.30;2.90;;;;;;;;;;4992330;28;20237;-58
2022/07/20 06:26:47;;;;;;;4.40;2.50;;;;;;;;;;4992509;28;20256;-58
2022/07/20 06:29:14;;;;;;;6.50;2.93;;;;;;;;;;4992427;28;20206;-58
2022/07/20 06:31:40;;;;;;;7.63;3.07;;;;;;;;;;4992272;28;20206;-59
2022/07/20 06:34:08;;;;;;;4.97;2.93;;;;;;;;;;4992676;28;20252;-59
2022/07/20 06:36:34;;;;;;;4.40;2.50;;;;;;;;;;4996264;28;20218;-59
2022/07/20 06:39:00;;;;;;;5.87;2.70;;;;;;;;;;4996435;28;20206;-59
2022/07/20 06:41:26;;;;;;;6.60;2.87;;;;;;;;;;4996067;28;20210;-59
2022/07/20 06:43:52;;;;;;;4.53;2.43;;;;;;;;;;4996002;28;20199;-59
2022/07/20 06:46:20;;;;;;;5.80;2.60;;;;;;;;;;4996129;28;20222;-59
2022/07/20 06:48:46;;;;;;;4.40;2.40;;;;;;;;;;4995998;28;20663;-59
2022/07/20 06:51:12;;;;;;;5.17;2.73;;;;;;;;;;4996159;28;20222;-59
2022/07/20 06:53:38;;;;;;;3.37;2.57;;;;;;;;;;4996041;28;20314;-59
2022/07/20 06:56:04;;;;;;;3.70;2.40;;;;;;;;;;4995912;28;20237;-59
2022/07/20 06:58:30;;;;;;;4.40;2.80;;;;;;;;;;4996110;28;20607;-59
2022/07/20 07:00:56;;;;;;;5.80;2.67;;;;;;;;;;4995949;28;20667;-60
2022/07/20 07:03:23;;;;;;;5.63;2.83;;;;;;;;;;4996260;28;20244;-60
2022/07/20 07:05:49;;;;;;;4.17;2.63;;;;;;;;;;4995882;28;20208;-60
2022/07/20 07:08:15;;;;;;;5.43;2.70;;;;;;;;;;4995745;28;20242;-60
2022/07/20 07:10:41;;;;;;;4.03;2.33;;;;;;;;;;4995823;28;20262;-60
2022/07/20 07:13:07;;;;;;;6.03;2.53;;;;;;;;;;4995725;28;20200;-60
2022/07/20 07:15:33;;;;;;;4.73;2.63;;;;;;;;;;4995521;28;20233;-60
2022/07/20 07:17:59;;;;;;;5.90;2.60;;;;;;;;;;4995726;28;20195;-60
2022/07/20 07:20:26;;;;;;;6.33;2.40;;;;;;;;;;4995483;28;20621;-60
2022/07/20 07:22:52;;;;;;;5.43;2.70;;;;;;;;;;4995653;28;20217;-61
2022/07/20 07:25:18;;;;;;;5.13;2.80;;;;;;;;;;4995528;28;20662;-60
2022/07/20 07:27:44;;;;;;;4.53;2.70;;;;;;;;;;4995607;28;20287;-61
2022/07/20 07:30:11;;;;;;;4.70;2.60;;;;;;;;;;4995488;28;20228;-55
2022/07/20 07:32:37;;;;;;;5.30;2.87;;;;;;;;;;4995187;28;20295;-56
2022/07/20 07:35:03;;;;;;;2.73;2.43;;;;;;;;;;4995080;28;20239;-55
2022/07/20 07:37:31;;;;;;;4.33;2.50;;;;;;;;;;4995315;28;20250;-60
2022/07/20 07:39:57;;;;;;;5.27;2.50;;;;;;;;;;4995058;28;20200;-56
2022/07/20 07:42:23;;;;;;;5.37;2.43;;;;;;;;;;4994983;28;20215;-56
2022/07/20 07:44:49;;;;;;;4.23;2.67;;;;;;;;;;4994804;28;20206;-57
2022/07/20 07:47:15;;;;;;;8.17;2.33;;;;;;;;;;4994331;28;20675;-58
2022/07/20 07:49:41;;;;;;;4.27;2.40;;;;;;;;;;4994845;28;20227;-58
2022/07/20 07:52:07;;;;;;;3.33;2.50;;;;;;;;;;4995072;28;20606;-57
2022/07/20 07:54:34;;;;;;;2.90;2.30;;;;;;;;;;4994924;28;20213;-57
2022/07/20 07:57:00;;;;;;;3.57;2.50;;;;;;;;;;4995170;28;20207;-58
2022/07/20 07:59:26;;;;;;;4.60;2.70;;;;;;;;;;4994799;28;20198;-57
2022/07/20 08:01:52;;;;;;;5.37;2.40;;;;;;;;;;4994943;28;20209;-56
2022/07/20 08:04:18;;;;;;;3.43;2.30;;;;;;;;;;4994563;28;20207;-56
2022/07/20 08:06:44;;;;;;;4.83;2.60;;;;;;;;;;4994572;28;20288;-56
2022/07/20 08:09:11;;;;;;;7.93;2.53;;;;;;;;;;4994906;28;20228;-56
2022/07/20 08:11:38;;;;;;;3.47;2.40;;;;;;;;;;4994761;28;20276;-56
2022/07/20 08:14:04;;;;;;;4.70;2.50;;;;;;;;;;4993213;28;20202;-56
2022/07/20 08:16:30;;;;;;;4.73;2.60;;;;;;;;;;4994771;28;20236;-56
2022/07/20 08:18:56;;;;;;;3.40;2.40;;;;;;;;;;4994622;28;20216;-56
2022/07/20 08:21:22;;;;;;;5.63;2.63;;;;;;;;;;4994357;28;20197;-56
2022/07/20 08:23:48;;;;;;;5.23;2.33;;;;;;;;;;4994435;28;20243;-56
2022/07/20 08:26:14;;;;;;;3.23;2.50;;;;;;;;;;4994637;28;20202;-57
2022/07/20 08:28:42;;;;;;;6.67;2.57;;;;;;;;;;4992639;28;20206;-57
2022/07/20 08:31:08;;;;;;;3.40;2.33;;;;;;;;;;4994445;28;20221;-56
2022/07/20 08:33:34;;;;;;;5.30;2.60;;;;;;;;;;4993982;28;20634;-58
2022/07/20 08:36:00;;;;;;;4.93;2.67;;;;;;;;;;4993970;28;20724;-57
2022/07/20 08:38:26;;;;;;;4.30;2.53;;;;;;;;;;4993977;28;20198;-57
2022/07/20 08:40:52;;;;;;;4.13;2.50;;;;;;;;;;4994037;28;20200;-57
2022/07/20 08:43:18;;;;;;;5.47;2.23;;;;;;;;;;4994001;28;20202;-56
2022/07/20 08:45:47;;;;;;;3.63;2.10;;;;;;;;;;4994117;28;20226;-56
2022/07/20 08:48:13;;;;;;;5.43;2.50;;;;;;;;;;4993869;28;20255;-56
2022/07/20 08:50:39;;;;;;;3.10;2.30;;;;;;;;;;4993699;28;20743;-56
2022/07/20 08:53:05;;;;;;;3.30;2.47;;;;;;;;;;4993804;28;20213;-56
2022/07/20 08:55:32;;;;;;;8.23;2.20;;;;;;;;;;4993653;28;20243;-56
2022/07/20 08:57:57;;;;;;;3.63;2.37;;;;;;;;;;4992884;28;20248;-56
2022/07/20 09:00:24;;;;;;;4.33;2.17;;;;;;;;;;4993525;28;20206;-56
2022/07/20 09:02:53;;;;;;;4.77;2.40;;;;;;;;;;4993676;28;20639;-56
2022/07/20 09:05:20;;;;;;;4.53;2.40;;;;;;;;;;4993387;28;20208;-56
2022/07/20 09:07:47;;;;;;;7.33;2.40;;;;;;;;;;4993855;28;20206;-56
2022/07/20 09:10:14;;;;;;;7.43;2.60;;;;;;;;;;4994020;28;20200;-56
2022/07/20 09:12:50;;;;;;;5.80;2.60;;;;;;;;;;4993484;28;20213;-56
2022/07/20 09:15:19;;;;;;;5.20;2.40;;;;;;;;;;4993645;28;20242;-56
2022/07/20 09:17:45;;;;;;;5.63;2.80;;;;;;;;;;4993552;28;20211;-56
2022/07/20 09:20:13;;;;;;;5.13;2.30;;;;;;;;;;4993541;28;20688;-56
2022/07/20 09:22:39;;;;;;;3.63;2.20;;;;;;;;;;4993419;28;20600;-56
2022/07/20 09:25:06;;;;;;;4.27;2.13;;;;;;;;;;4993399;28;20860;-56
2022/07/20 09:27:33;;;;;;;5.70;2.23;;;;;;;;;;4993409;28;20240;-56
2022/07/20 09:30:03;;;;;;;8.50;2.70;;;;;;;;;;4993590;28;20236;-56
2022/07/20 09:32:28;;;;;;;3.17;2.30;;;;;;;;;;4993224;28;20237;-56
2022/07/20 09:35:00;;;;;;;8.13;2.43;;;;;;;;;;4993256;28;20320;-56
2022/07/20 09:37:38;;;;;;;6.17;2.53;;;;;;;;;;4993250;28;20209;-56
2022/07/20 09:40:05;;;;;;;4.07;2.30;;;;;;;;;;4993415;28;20216;-57
2022/07/20 09:42:37;;;;;;;3.80;2.23;;;;;;;;;;4993304;28;20208;-56
2022/07/20 09:45:17;;;;;;;2.87;2.30;;;;;;;;;;4993384;28;20252;-57
2022/07/20 09:48:00;;;;;;;4.20;2.50;;;;;;;;;;4993200;28;20205;-56
2022/07/20 09:50:30;;;;;;;4.63;2.77;;;;;;;;;;4993020;28;20205;-56
2022/07/20 09:52:58;;;;;;;5.90;2.53;;;;;;;;;;4993172;28;20585;-56
2022/07/20 09:55:25;;;;;;;2.53;2.20;;;;;;;;;;4992882;28;20230;-56
2022/07/20 09:57:51;;;;;;;4.40;2.30;;;;;;;;;;4992982;28;20218;-56
2022/07/20 10:00:17;;;;;;;4.07;2.17;;;;;;;;;;4993025;28;20621;-57
2022/07/20 10:02:45;;;;;;;3.83;2.27;;;;;;;;;;4993108;28;20198;-56
2022/07/20 10:05:12;;;;;;;7.77;2.43;;;;;;;;;;4992874;28;20204;-56
2022/07/20 10:07:38;;;;;;;4.37;2.30;;;;;;;;;;4992738;28;20307;-57
2022/07/20 10:10:06;;;;;;;3.73;2.30;;;;;;;;;;4992500;28;20203;-56
2022/07/20 10:12:32;;;;;;;5.60;2.67;;;;;;;;;;4992645;28;20632;-56
2022/07/20 10:14:59;;;;;;;3.97;2.60;;;;;;;;;;4992808;28;20602;-56
2022/07/20 10:17:25;;;;;;;4.73;2.50;;;;;;;;;;4992682;28;20707;-56
2022/07/20 10:19:51;;;;;;;3.17;2.30;;;;;;;;;;4992917;28;20200;-58
2022/07/20 10:22:17;;;;;;;3.60;2.47;;;;;;;;;;4992715;28;20206;-57
2022/07/20 10:24:44;;;;;;;3.60;2.50;;;;;;;;;;4992625;28;20200;-56
2022/07/20 10:27:28;;;;;;;3.83;2.20;;;;;;;;;;4992752;28;20208;-56
2022/07/20 10:29:57;;;;;;;5.30;2.80;;;;;;;;;;4992765;28;20202;-57
2022/07/20 10:32:24;;;;;;;4.93;2.43;;;;;;;;;;4992355;28;20229;-56
2022/07/20 10:34:52;;;;;;;4.33;2.60;;;;;;;;;;4992027;28;20272;-56
2022/07/20 10:37:25;;;;;;;5.57;2.33;;;;;;;;;;4992516;28;20195;-56
2022/07/20 10:39:52;;;;;;;6.33;2.20;;;;;;;;;;4992465;28;20570;-57
2022/07/20 10:42:27;;;;;;;3.57;2.60;;;;;;;;;;4992052;28;20235;-57
2022/07/20 10:45:15;;;;;;;5.47;2.70;;;;;;;;;;4992560;28;20202;-57
2022/07/20 10:47:42;;;;;;;4.70;2.43;;;;;;;;;;4992029;28;20293;-57
2022/07/20 10:50:09;;;;;;;3.53;2.20;;;;;;;;;;4992242;28;20231;-57
2022/07/20 10:52:35;;;;;;;2.22;2.03;;;;;;;;;;4992264;28;20212;-57
2022/07/20 10:55:01;;;;;;;4.55;2.38;;;;;;;;;;4992392;28;20229;-56
2022/07/20 10:57:27;;;;;;;10.27;3.08;;;;;;;;;;4992248;28;20652;-57
2022/07/20 11:00:13;;;;;;;3.70;2.15;;;;;;;;;;4992279;28;20285;-56
2022/07/20 11:02:39;;;;;;;5.07;2.30;;;;;;;;;;4992168;28;20206;-56
2022/07/20 11:05:06;;;;;;;5.15;2.88;;;;;;;;;;4992373;28;20198;-56
2022/07/20 11:07:33;;;;;;;6.05;2.38;;;;;;;;;;4992319;28;20205;-56
2022/07/20 11:09:59;;;;;;;4.75;2.47;;;;;;;;;;4992056;28;20194;-56
2022/07/20 11:12:27;;;;;;;6.22;2.42;;;;;;;;;;4992151;28;20202;-56
2022/07/20 11:14:53;;;;;;;4.38;2.50;;;;;;;;;;4992309;28;20278;-57
2022/07/20 11:17:21;;;;;;;4.60;2.83;;;;;;;;;;4992262;28;20205;-57
2022/07/20 11:19:47;;;;;;;3.80;2.60;;;;;;;;;;4992261;28;20206;-57
2022/07/20 11:22:13;;;;;;;4.65;2.53;;;;;;;;;;4994721;28;20248;-57
2022/07/20 11:24:39;;;;;;;4.28;2.47;;;;;;;;;;4995455;28;20201;-56
2022/07/20 11:27:13;;;;;;;4.28;2.80;;;;;;;;;;4995718;28;20285;-57
2022/07/20 11:29:45;;;;;;;3.50;2.50;;;;;;;;;;4995429;28;20669;-57
2022/07/20 11:32:12;;;;;;;3.78;2.53;;;;;;;;;;4995618;28;20265;-57
2022/07/20 11:34:44;;;;;;;5.22;2.58;;;;;;;;;;4994965;28;20804;-57
2022/07/20 11:37:10;;;;;;;4.22;2.63;;;;;;;;;;4995592;28;20265;-56
2022/07/20 11:39:35;;;;;;;3.88;2.47;;;;;;;;;;4995366;28;20566;-57
2022/07/20 11:42:09;;;;;;;8.57;2.65;;;;;;;;;;4995621;28;20229;-56
2022/07/20 11:44:35;;;;;;;6.85;2.92;;;;;;;;;;4995412;28;20301;-57
2022/07/20 11:47:01;;;;;;;7.20;3.25;;;;;;;;;;4995303;28;20292;-57
2022/07/20 11:49:27;;;;;;;5.07;2.75;;;;;;;;;;4995268;28;20205;-57
2022/07/20 11:51:56;;;;;;;3.60;2.75;;;;;;;;;;4995330;28;20208;-57
2022/07/20 11:54:22;;;;;;;3.50;2.85;;;;;;;;;;4995167;28;20210;-57
2022/07/20 11:56:49;;;;;;;4.82;2.63;;;;;;;;;;4995287;28;20229;-57
2022/07/20 11:59:15;;;;;;;4.05;2.78;;;;;;;;;;4995252;28;20206;-57
2022/07/20 12:01:42;;;;;;;6.13;3.10;;;;;;;;;;4994987;28;20206;-57
2022/07/20 12:04:09;;;;;;;4.30;2.80;;;;;;;;;;4994943;28;20206;-57
2022/07/20 12:06:37;;;;;;;4.80;3.38;;;;;;;;;;4994744;28;20252;-57
2022/07/20 12:09:06;;;;;;;6.03;3.10;;;;;;;;;;4995016;28;20202;-57
2022/07/20 12:11:31;;;;;;;8.45;3.00;;;;;;;;;;4995190;28;20212;-57
2022/07/20 12:13:57;;;;;;;4.40;2.92;;;;;;;;;;4994793;28;20210;-57
2022/07/20 12:16:24;;;;;;;3.97;2.75;;;;;;;;;;4994585;28;20233;-57
2022/07/20 12:18:51;;;;;;;4.38;3.42;;;;;;;;;;4994880;28;20202;-57
2022/07/20 12:21:18;;;;;;;5.85;3.53;;;;;;;;;;4994737;28;20220;-57
2022/07/20 12:23:45;;;;;;;8.38;3.50;;;;;;;;;;4994677;28;20208;-57
2022/07/20 12:26:26;;;;;;;6.55;3.25;;;;;;;;;;4994680;28;20201;-57
2022/07/20 12:28:52;;;;;;;7.55;3.40;;;;;;;;;;4994406;28;20202;-57
2022/07/20 12:31:19;;;;;;;6.28;3.08;;;;;;;;;;4994611;28;20281;-57
2022/07/20 12:34:05;;;;;;;5.43;3.65;;;;;;;;;;4994220;28;20280;-57
2022/07/20 12:36:32;;;;;;;5.57;3.30;;;;;;;;;;4987252;28;20233;-57
2022/07/20 12:38:58;;;;;;;3.92;3.33;;;;;;;;;;4976591;28;20214;-57
2022/07/20 12:41:25;;;;;;;9.85;3.50;;;;;;;;;;5010570;28;20292;-57
2022/07/20 12:43:51;;;;;;;4.95;3.53;;;;;;;;;;5013720;28;20573;-57
2022/07/20 12:46:18;;;;;;;5.72;3.50;;;;;;;;;;5013717;28;20716;-57
2022/07/20 12:48:45;;;;;;;8.50;3.60;;;;;;;;;;5013706;28;20202;-58
2022/07/20 12:51:11;;;;;;;6.93;3.80;;;;;;;;;;5013748;28;20648;-58
2022/07/20 12:53:38;;;;;;;6.03;3.88;;;;;;;;;;5013158;28;20557;-58
2022/07/20 12:56:05;;;;;;;5.15;3.60;;;;;;;;;;5013657;28;20229;-58
2022/07/20 12:58:32;;;;;;;4.70;3.35;;;;;;;;;;5011815;28;20742;-58
2022/07/20 13:00:59;;;;;;;7.90;3.97;;;;;;;;;;5011933;28;20209;-58
2022/07/20 13:03:25;;;;;;;4.38;3.60;;;;;;;;;;5011746;28;20209;-58
2022/07/20 13:05:51;;;;;;;6.32;4.10;;;;;;;;;;5013259;28;20204;-58
2022/07/20 13:08:17;;;;;;;6.10;4.43;;;;;;;;;;5013529;28;20211;-58
2022/07/20 13:10:43;;;;;;;10.88;4.90;;;;;;;;;;5013108;28;20251;-58
2022/07/20 13:13:09;;;;;;;11.73;4.75;;;;;;;;;;5013299;28;20228;-58
2022/07/20 13:15:37;;;;;;;7.90;4.90;;;;;;;;;;5013166;28;20256;-59
2022/07/20 13:18:03;;;;;;;7.55;4.85;;;;;;;;;;5013059;28;20674;-59
2022/07/20 13:20:29;;;;;;;7.55;4.40;;;;;;;;;;5012985;28;20241;-58
2022/07/20 13:22:55;;;;;;;6.50;4.20;;;;;;;;;;5013129;28;20229;-58
2022/07/20 13:25:22;;;;;;;8.23;4.40;;;;;;;;;;5013114;28;20219;-59
2022/07/20 13:27:48;;;;;;;8.10;4.22;;;;;;;;;;5013008;28;20205;-59
2022/07/20 13:30:14;;;;;;;6.35;4.03;;;;;;;;;;5012902;28;20205;-59
2022/07/20 13:32:43;;;;;;;11.82;4.15;;;;;;;;;;5012772;28;20699;-59
2022/07/20 13:35:09;;;;;;;10.25;4.82;;;;;;;;;;5011082;28;20325;-60
2022/07/20 13:37:36;;;;;;;8.18;4.07;;;;;;;;;;5012763;28;20731;-59
2022/07/20 13:40:03;;;;;;;7.95;4.25;;;;;;;;;;5012970;28;20197;-59
2022/07/20 13:42:29;;;;;;;10.85;4.20;;;;;;;;;;5012531;28;20198;-59
2022/07/20 13:44:55;;;;;;;8.27;4.50;;;;;;;;;;5012419;28;20276;-58
2022/07/20 13:47:21;;;;;;;10.00;4.30;;;;;;;;;;5012704;28;20208;-59
2022/07/20 13:49:48;;;;;;;6.75;3.95;;;;;;;;;;5012323;28;20205;-59
2022/07/20 13:52:17;;;;;;;4.82;4.30;;;;;;;;;;5012757;28;20213;-59
2022/07/20 13:54:43;;;;;;;6.10;3.83;;;;;;;;;;5012028;28;20656;-58
2022/07/20 13:57:09;;;;;;;6.53;3.80;;;;;;;;;;5012706;28;20208;-58
2022/07/20 13:59:35;;;;;;;10.55;4.25;;;;;;;;;;5012717;28;20208;-58
2022/07/20 14:02:01;;;;;;;5.82;4.00;;;;;;;;;;5012596;28;20197;-58
2022/07/20 14:04:27;;;;;;;6.03;3.72;;;;;;;;;;5012448;28;20255;-58
2022/07/20 14:06:54;;;;;;;8.05;4.10;;;;;;;;;;5012038;28;20201;-59
2022/07/20 14:09:20;;;;;;;7.53;3.95;;;;;;;;;;5012390;28;20580;-58
2022/07/20 14:11:46;;;;;;;7.47;3.97;;;;;;;;;;5012253;28;20201;-59
2022/07/20 14:14:12;;;;;;;5.85;3.95;;;;;;;;;;5012344;28;20284;-58
2022/07/20 14:16:40;;;;;;;7.68;4.38;;;;;;;;;;5012042;28;20237;-58
2022/07/20 14:19:06;;;;;;;6.63;3.90;;;;;;;;;;5012377;28;20209;-59
2022/07/20 14:21:32;;;;;;;7.30;4.10;;;;;;;;;;5012313;28;20197;-57
2022/07/20 14:23:59;;;;;;;5.75;3.72;;;;;;;;;;5012438;28;20197;-57
2022/07/20 14:26:25;;;;;;;8.80;4.13;;;;;;;;;;5012302;28;20201;-57
2022/07/20 14:28:51;;;;;;;7.50;4.50;;;;;;;;;;5012219;28;20205;-57
2022/07/20 14:31:17;;;;;;;6.82;4.97;;;;;;;;;;5012257;28;20216;-57
2022/07/20 14:33:43;;;;;;;10.52;5.78;;;;;;;;;;5012063;28;20209;-59
2022/07/20 14:36:09;;;;;;;7.70;5.65;;;;;;;;;;5012095;28;20643;-61
2022/07/20 14:38:35;;;;;;;9.82;5.85;;;;;;;;;;5012015;28;20208;-60
2022/07/20 14:41:02;;;;;;;9.00;5.63;;;;;;;;;;5011944;28;20205;-60
2022/07/20 14:46:04;;;;;;;7.03;5.78;;;;;;;;;;5525822;23;20689;-58
2022/07/20 14:48:30;;;;;;;6.80;5.43;;;;;;;;;;4990573;28;20198;-59